Time;durP1;ratioP1;P1;durP2;ratioP2;P2;SDS_P1;SDS_P2;PMS_P1;PMS_P2;Temp;Humidity;BMP_temperature;BMP_pressure;BME280_temperature;BME280_humidity;BME280_pressure;Samples;Min_cycle;Max_cycle;Signal;HPM_P1;HPM_P2
2022/06/25 00:01:58;;;;;;;13.57;7.28;;;;;;;;;;5012491;28;20057;-66
2022/06/25 00:07:08;;;;;;;14.60;6.20;;;;;;;;;;5012406;28;20117;-66
2022/06/25 00:09:33;;;;;;;11.90;6.32;;;;;;;;;;5006563;28;20118;-65
2022/06/25 00:14:44;;;;;;;9.10;6.25;;;;;;;;;;5011959;28;20030;-66
2022/06/25 00:17:09;;;;;;;14.45;6.35;;;;;;;;;;5011606;28;20376;-66
2022/06/25 00:19:35;;;;;;;10.40;6.22;;;;;;;;;;5011185;28;20038;-66
2022/06/25 00:22:02;;;;;;;14.98;6.63;;;;;;;;;;5011245;28;20073;-67
2022/06/25 00:24:27;;;;;;;9.68;6.43;;;;;;;;;;5011846;28;20050;-66
2022/06/25 00:26:53;;;;;;;15.27;6.88;;;;;;;;;;5010802;28;20481;-67
2022/06/25 00:29:19;;;;;;;11.13;6.10;;;;;;;;;;5011724;28;20473;-71
2022/06/25 00:31:45;;;;;;;13.10;6.13;;;;;;;;;;5010509;28;20030;-69
2022/06/25 00:34:11;;;;;;;9.02;6.75;;;;;;;;;;5010232;28;20060;-73
2022/06/25 00:36:37;;;;;;;10.52;6.45;;;;;;;;;;5011324;28;20151;-69
2022/06/25 00:39:03;;;;;;;17.55;6.65;;;;;;;;;;5010848;28;20038;-74
2022/06/25 00:41:29;;;;;;;11.63;7.05;;;;;;;;;;5011300;28;20026;-65
2022/06/25 00:43:56;;;;;;;11.43;7.53;;;;;;;;;;5010061;28;20026;-66
2022/06/25 00:46:22;;;;;;;11.25;5.72;;;;;;;;;;5004528;28;20040;-65
2022/06/25 00:48:48;;;;;;;15.40;6.80;;;;;;;;;;5010286;28;20057;-70
2022/06/25 00:51:15;;;;;;;8.85;6.00;;;;;;;;;;5011347;28;20022;-68
2022/06/25 00:53:43;;;;;;;12.02;6.63;;;;;;;;;;5009902;28;20121;-70
2022/06/25 00:56:11;;;;;;;11.43;6.20;;;;;;;;;;5011142;28;20089;-72
2022/06/25 00:58:43;;;;;;;10.55;6.82;;;;;;;;;;5009881;28;20080;-73
2022/06/25 01:01:10;;;;;;;10.27;6.55;;;;;;;;;;5010589;28;20069;-72
2022/06/25 01:03:37;;;;;;;11.70;6.65;;;;;;;;;;5009924;28;20045;-71
2022/06/25 01:06:04;;;;;;;11.10;6.50;;;;;;;;;;5011460;28;20092;-66
2022/06/25 01:08:35;;;;;;;16.42;6.78;;;;;;;;;;5010794;28;20041;-73
2022/06/25 01:11:02;;;;;;;11.55;7.05;;;;;;;;;;5011118;28;20022;-68
2022/06/25 01:13:30;;;;;;;13.73;7.00;;;;;;;;;;5009941;28;20384;-70
2022/06/25 01:15:56;;;;;;;10.38;6.63;;;;;;;;;;5009883;28;20070;-66
2022/06/25 01:18:23;;;;;;;12.48;6.30;;;;;;;;;;5007687;28;20024;-66
2022/06/25 01:20:49;;;;;;;12.52;7.15;;;;;;;;;;5010324;28;20113;-66
2022/06/25 01:23:15;;;;;;;13.13;6.45;;;;;;;;;;5010000;28;20022;-69
2022/06/25 01:25:42;;;;;;;14.18;7.35;;;;;;;;;;5009770;28;20034;-66
2022/06/25 01:28:09;;;;;;;12.40;6.72;;;;;;;;;;5008556;28;20049;-66
2022/06/25 01:30:35;;;;;;;14.10;7.07;;;;;;;;;;5011023;28;20042;-66
2022/06/25 01:33:06;;;;;;;12.00;6.82;;;;;;;;;;5010758;28;20041;-66
2022/06/25 01:35:33;;;;;;;10.45;6.70;;;;;;;;;;5009709;28;20034;-66
2022/06/25 01:38:01;;;;;;;11.40;6.50;;;;;;;;;;5010605;28;20034;-69
2022/06/25 01:40:31;;;;;;;9.50;5.68;;;;;;;;;;5010039;28;20116;-66
2022/06/25 01:43:01;;;;;;;13.63;6.60;;;;;;;;;;4999116;28;20502;-68
2022/06/25 01:45:30;;;;;;;16.70;7.40;;;;;;;;;;5013359;28;20066;-69
2022/06/25 01:47:58;;;;;;;15.20;7.40;;;;;;;;;;5014847;28;20045;-71
2022/06/25 01:50:25;;;;;;;14.90;7.68;;;;;;;;;;5013405;28;20029;-69
2022/06/25 01:52:51;;;;;;;14.85;7.18;;;;;;;;;;5019885;28;20056;-66
2022/06/25 01:55:18;;;;;;;10.55;6.95;;;;;;;;;;5016553;28;20472;-68
2022/06/25 01:57:47;;;;;;;11.73;7.30;;;;;;;;;;5011867;28;20029;-66
2022/06/25 02:00:17;;;;;;;11.02;7.28;;;;;;;;;;5012590;28;20032;-66
2022/06/25 02:02:51;;;;;;;13.50;7.85;;;;;;;;;;5013320;28;20455;-69
2022/06/25 02:05:56;;;;;;;18.83;7.88;;;;;;;;;;5013357;28;20484;-69
2022/06/25 02:08:06;;;;;;;14.02;7.80;;;;;;;;;;5014213;28;20034;-65
2022/06/25 02:10:32;;;;;;;14.32;7.65;;;;;;;;;;5014845;28;20105;-69
2022/06/25 02:12:58;;;;;;;12.00;7.90;;;;;;;;;;5014676;28;20069;-66
2022/06/25 02:15:24;;;;;;;15.30;8.57;;;;;;;;;;5013424;28;20054;-65
2022/06/25 02:17:50;;;;;;;17.30;9.18;;;;;;;;;;5014332;28;20038;-65
2022/06/25 02:20:18;;;;;;;13.80;8.05;;;;;;;;;;5014344;28;20029;-66
2022/06/25 02:22:44;;;;;;;20.73;8.80;;;;;;;;;;5013460;28;20509;-71
2022/06/25 02:25:10;;;;;;;14.18;8.43;;;;;;;;;;5012251;28;20546;-66
2022/06/25 02:27:36;;;;;;;14.95;8.00;;;;;;;;;;5012340;28;20492;-65
2022/06/25 02:30:02;;;;;;;11.40;7.35;;;;;;;;;;5014144;28;20468;-68
2022/06/25 02:32:32;;;;;;;10.23;6.60;;;;;;;;;;5029443;28;20097;-65
2022/06/25 02:34:58;;;;;;;11.45;7.70;;;;;;;;;;5014088;28;20096;-69
2022/06/25 02:37:24;;;;;;;11.52;6.95;;;;;;;;;;5013508;28;20473;-72
2022/06/25 02:39:50;;;;;;;9.40;7.28;;;;;;;;;;5013858;28;20484;-73
2022/06/25 02:42:16;;;;;;;13.07;7.63;;;;;;;;;;5012612;28;20022;-70
2022/06/25 02:44:42;;;;;;;12.75;7.95;;;;;;;;;;5013511;28;20048;-66
2022/06/25 02:47:07;;;;;;;12.18;8.13;;;;;;;;;;5013778;28;20034;-68
2022/06/25 02:49:51;;;;;;;15.88;8.35;;;;;;;;;;5028314;28;20124;-66
2022/06/25 02:52:17;;;;;;;15.32;7.97;;;;;;;;;;5014028;28;20049;-71
2022/06/25 02:54:42;;;;;;;12.52;7.05;;;;;;;;;;5012530;28;20030;-65
2022/06/25 02:59:53;;;;;;;18.23;7.68;;;;;;;;;;5009248;28;20405;-65
2022/06/25 03:02:19;;;;;;;18.35;8.15;;;;;;;;;;5009062;28;20038;-72
2022/06/25 03:04:48;;;;;;;13.25;7.45;;;;;;;;;;5009154;28;20041;-68
2022/06/25 03:07:14;;;;;;;11.85;7.72;;;;;;;;;;4994044;28;20042;-66
2022/06/25 03:09:40;;;;;;;10.75;8.00;;;;;;;;;;5012583;28;20040;-66
2022/06/25 03:12:07;;;;;;;18.77;8.48;;;;;;;;;;5011915;28;20084;-70
2022/06/25 03:14:35;;;;;;;12.80;8.00;;;;;;;;;;5011921;28;20619;-70
2022/06/25 03:17:02;;;;;;;13.48;7.63;;;;;;;;;;4995791;28;20056;-66
2022/06/25 03:19:47;;;;;;;13.13;7.50;;;;;;;;;;5012246;28;20128;-64
2022/06/25 03:22:28;;;;;;;13.63;8.00;;;;;;;;;;5012008;28;20030;-75
2022/06/25 03:24:53;;;;;;;14.68;7.53;;;;;;;;;;5011864;28;20049;-68
2022/06/25 03:27:20;;;;;;;15.70;8.57;;;;;;;;;;5011957;28;20448;-75
2022/06/25 03:29:50;;;;;;;11.52;7.47;;;;;;;;;;5011596;28;20044;-71
2022/06/25 03:32:17;;;;;;;16.55;8.07;;;;;;;;;;5011482;28;20037;-69
2022/06/25 03:35:12;;;;;;;16.70;8.25;;;;;;;;;;5012790;28;20500;-72
2022/06/25 03:37:51;;;;;;;11.15;7.47;;;;;;;;;;5011850;28;20095;-65
2022/06/25 03:40:18;;;;;;;12.90;7.50;;;;;;;;;;5011439;28;20048;-74
2022/06/25 03:42:44;;;;;;;18.77;8.85;;;;;;;;;;5011619;28;20026;-74
2022/06/25 03:45:13;;;;;;;12.60;7.50;;;;;;;;;;5011524;28;20152;-67
2022/06/25 03:47:39;;;;;;;18.35;9.15;;;;;;;;;;5013099;28;20109;-67
2022/06/25 03:50:08;;;;;;;17.80;8.18;;;;;;;;;;5011448;28;20034;-65
2022/06/25 03:52:34;;;;;;;14.10;8.75;;;;;;;;;;5011403;28;20048;-70
2022/06/25 03:54:59;;;;;;;17.08;8.88;;;;;;;;;;5010554;28;20117;-70
2022/06/25 03:57:25;;;;;;;13.27;8.00;;;;;;;;;;5012360;28;20156;-65
2022/06/25 04:00:12;;;;;;;15.27;7.25;;;;;;;;;;5010589;28;20037;-65
2022/06/25 04:02:49;;;;;;;17.20;8.18;;;;;;;;;;5009179;28;20499;-75
2022/06/25 04:05:41;;;;;;;16.33;7.75;;;;;;;;;;5011366;28;20054;-66
2022/06/25 04:08:20;;;;;;;13.60;7.53;;;;;;;;;;5011133;28;20493;-66
2022/06/25 04:10:49;;;;;;;15.75;7.38;;;;;;;;;;5010989;28;20389;-66
2022/06/25 04:13:16;;;;;;;14.73;7.15;;;;;;;;;;5011106;28;20033;-66
2022/06/25 04:15:42;;;;;;;12.82;7.35;;;;;;;;;;5010876;28;20488;-69
2022/06/25 04:18:09;;;;;;;13.02;7.55;;;;;;;;;;5011092;28;20030;-73
2022/06/25 04:20:36;;;;;;;13.23;6.63;;;;;;;;;;5010623;28;20038;-66
2022/06/25 04:23:03;;;;;;;16.45;8.27;;;;;;;;;;5010686;28;20113;-70
2022/06/25 04:25:30;;;;;;;16.90;8.27;;;;;;;;;;5010679;28;20037;-65
2022/06/25 04:30:40;;;;;;;12.25;7.57;;;;;;;;;;5010064;28;20038;-66
2022/06/25 04:33:06;;;;;;;12.63;6.45;;;;;;;;;;5010765;28;20040;-65
2022/06/25 04:35:39;;;;;;;16.15;7.05;;;;;;;;;;5011019;28;20038;-65
2022/06/25 04:38:24;;;;;;;16.00;6.90;;;;;;;;;;5010785;28;20054;-69
2022/06/25 04:40:50;;;;;;;11.50;6.88;;;;;;;;;;5010654;28;20041;-69
2022/06/25 04:43:16;;;;;;;10.57;6.47;;;;;;;;;;5010060;28;20033;-67
2022/06/25 04:45:42;;;;;;;11.18;6.47;;;;;;;;;;5009230;28;20725;-66
2022/06/25 04:48:19;;;;;;;10.85;7.38;;;;;;;;;;5011062;28;20038;-67
2022/06/25 04:51:25;;;;;;;14.48;6.32;;;;;;;;;;5008544;28;20092;-67
2022/06/25 04:53:55;;;;;;;14.52;6.00;;;;;;;;;;5011551;28;20048;-66
2022/06/25 04:56:28;;;;;;;11.75;6.55;;;;;;;;;;5011913;28;20373;-66
2022/06/25 04:58:57;;;;;;;10.40;6.20;;;;;;;;;;5011557;28;20038;-71
2022/06/25 05:01:43;;;;;;;11.95;7.13;;;;;;;;;;5011537;28;20444;-67
2022/06/25 05:04:09;;;;;;;17.58;6.80;;;;;;;;;;5018894;28;20124;-66
2022/06/25 05:06:35;;;;;;;14.05;6.70;;;;;;;;;;5011519;28;20130;-66
2022/06/25 05:09:01;;;;;;;13.55;7.43;;;;;;;;;;5010604;28;20133;-67
2022/06/25 05:11:27;;;;;;;16.00;7.25;;;;;;;;;;5011003;28;20097;-66
2022/06/25 05:13:53;;;;;;;16.10;6.55;;;;;;;;;;5013421;28;20034;-65
2022/06/25 05:16:19;;;;;;;12.73;6.90;;;;;;;;;;5015746;28;20439;-67
2022/06/25 05:18:47;;;;;;;14.00;7.13;;;;;;;;;;5015014;28;20608;-68
2022/06/25 05:21:14;;;;;;;11.60;6.43;;;;;;;;;;5015267;28;20041;-65
2022/06/25 05:23:41;;;;;;;13.23;6.07;;;;;;;;;;5015226;28;20034;-66
2022/06/25 05:26:07;;;;;;;16.30;6.90;;;;;;;;;;5011482;28;20034;-65
2022/06/25 05:28:33;;;;;;;13.13;6.63;;;;;;;;;;5007403;28;20034;-65
2022/06/25 05:30:59;;;;;;;11.23;6.18;;;;;;;;;;5014937;28;20030;-65
2022/06/25 05:33:25;;;;;;;12.35;6.22;;;;;;;;;;5003832;28;20045;-66
2022/06/25 05:35:53;;;;;;;12.98;6.25;;;;;;;;;;5013755;28;20053;-66
2022/06/25 05:38:20;;;;;;;10.15;5.80;;;;;;;;;;5014781;28;20125;-66
2022/06/25 05:40:46;;;;;;;9.75;6.28;;;;;;;;;;5015001;28;20076;-66
2022/06/25 05:43:13;;;;;;;10.55;6.20;;;;;;;;;;5013556;28;20026;-66
2022/06/25 05:45:39;;;;;;;15.68;6.38;;;;;;;;;;5013468;28;20072;-66
2022/06/25 05:48:05;;;;;;;18.58;7.15;;;;;;;;;;5015944;28;20038;-66
2022/06/25 05:50:31;;;;;;;14.13;6.15;;;;;;;;;;5016004;28;20032;-66
2022/06/25 05:52:57;;;;;;;10.65;6.72;;;;;;;;;;5014077;28;20037;-65
2022/06/25 05:55:24;;;;;;;10.85;6.95;;;;;;;;;;5015184;28;20034;-66
2022/06/25 05:57:51;;;;;;;11.98;7.10;;;;;;;;;;5013985;28;20034;-72
2022/06/25 06:00:17;;;;;;;14.43;6.43;;;;;;;;;;5013891;28;20022;-69
2022/06/25 06:02:44;;;;;;;11.73;6.10;;;;;;;;;;5013843;28;20053;-70
2022/06/25 06:05:10;;;;;;;10.32;6.20;;;;;;;;;;5014343;28;20046;-67
2022/06/25 06:07:36;;;;;;;12.43;6.13;;;;;;;;;;5015644;28;20092;-70
2022/06/25 06:10:03;;;;;;;12.25;6.38;;;;;;;;;;5014761;28;20155;-70
2022/06/25 06:12:29;;;;;;;9.88;5.72;;;;;;;;;;5011427;28;20034;-70
2022/06/25 06:14:55;;;;;;;10.55;6.20;;;;;;;;;;5014071;28;20083;-68
2022/06/25 06:17:21;;;;;;;8.85;6.07;;;;;;;;;;5015213;28;20484;-68
2022/06/25 06:19:47;;;;;;;13.52;5.88;;;;;;;;;;5015159;28;20489;-71
2022/06/25 06:22:12;;;;;;;13.23;6.10;;;;;;;;;;5015069;28;20034;-69
2022/06/25 06:24:39;;;;;;;12.95;6.13;;;;;;;;;;5013485;28;20025;-68
2022/06/25 06:27:05;;;;;;;13.57;5.80;;;;;;;;;;5014211;28;20168;-72
2022/06/25 06:29:31;;;;;;;9.98;6.40;;;;;;;;;;5014670;28;20103;-70
2022/06/25 06:31:57;;;;;;;15.32;6.25;;;;;;;;;;5014262;28;20433;-67
2022/06/25 06:34:22;;;;;;;10.82;5.78;;;;;;;;;;5015143;28;20164;-69
2022/06/25 06:36:48;;;;;;;10.05;6.00;;;;;;;;;;5014272;28;20125;-69
2022/06/25 06:39:14;;;;;;;11.10;5.60;;;;;;;;;;5014163;28;20026;-68
2022/06/25 06:41:40;;;;;;;14.70;6.32;;;;;;;;;;5014920;28;20160;-73
2022/06/25 06:44:06;;;;;;;14.40;6.03;;;;;;;;;;5013607;28;20166;-73
2022/06/25 06:46:32;;;;;;;10.98;5.70;;;;;;;;;;5021416;28;20414;-75
2022/06/25 06:48:58;;;;;;;9.82;5.68;;;;;;;;;;5014969;28;20025;-73
2022/06/25 06:51:24;;;;;;;9.32;5.63;;;;;;;;;;5014787;28;20089;-74
2022/06/25 06:53:50;;;;;;;14.02;6.45;;;;;;;;;;5014806;28;20022;-73
2022/06/25 06:56:15;;;;;;;10.70;5.55;;;;;;;;;;5014591;28;20100;-75
2022/06/25 06:58:41;;;;;;;12.63;5.55;;;;;;;;;;5014683;28;20480;-74
2022/06/25 07:01:07;;;;;;;12.02;5.97;;;;;;;;;;5014720;28;20116;-73
2022/06/25 07:03:33;;;;;;;17.50;6.45;;;;;;;;;;5014261;28;20077;-75
2022/06/25 07:05:59;;;;;;;10.93;6.25;;;;;;;;;;5013832;28;20059;-69
2022/06/25 07:08:24;;;;;;;10.07;6.65;;;;;;;;;;5013285;28;20026;-75
2022/06/25 07:10:50;;;;;;;11.55;6.45;;;;;;;;;;5014264;28;20064;-75
2022/06/25 07:13:16;;;;;;;15.02;7.38;;;;;;;;;;5013495;28;20056;-72
2022/06/25 07:15:42;;;;;;;12.68;6.43;;;;;;;;;;5013642;28;20038;-73
2022/06/25 07:18:08;;;;;;;10.48;6.20;;;;;;;;;;5014063;28;20511;-74
2022/06/25 07:20:34;;;;;;;16.02;6.05;;;;;;;;;;5013925;28;20432;-74
2022/06/25 07:23:00;;;;;;;10.70;6.55;;;;;;;;;;5013196;28;20026;-76
2022/06/25 07:25:26;;;;;;;10.02;5.60;;;;;;;;;;5013011;28;20413;-73
2022/06/25 07:27:52;;;;;;;13.00;6.20;;;;;;;;;;5011534;28;20128;-72
2022/06/25 07:30:18;;;;;;;16.92;6.78;;;;;;;;;;5006662;28;20121;-72
2022/06/25 07:32:43;;;;;;;17.52;6.88;;;;;;;;;;4995023;28;20037;-72
2022/06/25 07:35:09;;;;;;;11.30;6.72;;;;;;;;;;4995791;28;20026;-72
2022/06/25 07:37:36;;;;;;;10.70;6.38;;;;;;;;;;4995720;28;20384;-71
2022/06/25 07:40:04;;;;;;;10.40;6.53;;;;;;;;;;5010819;28;20073;-72
2022/06/25 07:42:31;;;;;;;13.98;6.88;;;;;;;;;;5007259;28;20030;-71
2022/06/25 07:44:58;;;;;;;10.30;6.80;;;;;;;;;;5017625;28;20038;-71
2022/06/25 07:47:24;;;;;;;9.05;6.40;;;;;;;;;;5022930;28;20071;-74
2022/06/25 07:52:34;;;;;;;11.93;6.70;;;;;;;;;;5008923;28;20058;-71
2022/06/25 07:55:03;;;;;;;9.68;6.05;;;;;;;;;;5005562;28;20080;-71
2022/06/25 07:57:29;;;;;;;20.63;6.25;;;;;;;;;;4994577;28;20081;-70
2022/06/25 07:59:55;;;;;;;14.63;6.72;;;;;;;;;;4993350;28;20026;-71
2022/06/25 08:02:21;;;;;;;12.52;6.20;;;;;;;;;;4993275;28;20050;-72
2022/06/25 08:04:47;;;;;;;8.25;5.90;;;;;;;;;;5008165;28;20045;-71
2022/06/25 08:07:13;;;;;;;10.27;6.18;;;;;;;;;;4994389;28;20034;-69
2022/06/25 08:09:38;;;;;;;11.10;5.88;;;;;;;;;;5022482;28;20030;-71
2022/06/25 08:12:04;;;;;;;11.50;6.20;;;;;;;;;;5005677;28;20069;-72
2022/06/25 08:14:30;;;;;;;9.77;5.90;;;;;;;;;;5011708;28;20034;-71
2022/06/25 08:16:56;;;;;;;17.90;7.22;;;;;;;;;;5012974;28;20444;-72
2022/06/25 08:19:22;;;;;;;13.00;6.47;;;;;;;;;;5012591;28;20052;-71
2022/06/25 08:21:48;;;;;;;15.20;6.55;;;;;;;;;;5013019;28;20030;-72
2022/06/25 08:24:13;;;;;;;12.07;6.05;;;;;;;;;;5012233;28;20357;-68
2022/06/25 08:26:39;;;;;;;9.32;6.13;;;;;;;;;;5012196;28;20061;-73
2022/06/25 08:29:05;;;;;;;12.80;6.43;;;;;;;;;;5012178;28;20399;-71
2022/06/25 08:31:31;;;;;;;13.00;6.18;;;;;;;;;;5016014;28;20030;-73
2022/06/25 08:33:58;;;;;;;8.18;5.90;;;;;;;;;;5021814;28;20115;-75
2022/06/25 08:36:24;;;;;;;15.20;6.63;;;;;;;;;;5014719;28;20029;-73
2022/06/25 08:38:49;;;;;;;11.30;6.45;;;;;;;;;;5011096;28;20037;-75
2022/06/25 08:41:16;;;;;;;17.17;7.32;;;;;;;;;;5000446;28;20057;-73
2022/06/25 08:43:41;;;;;;;12.40;6.40;;;;;;;;;;5008108;28;20029;-71
2022/06/25 08:46:07;;;;;;;15.50;6.47;;;;;;;;;;5004478;28;20030;-75
2022/06/25 08:48:35;;;;;;;14.40;6.30;;;;;;;;;;5019422;28;20473;-74
2022/06/25 08:51:02;;;;;;;11.75;6.03;;;;;;;;;;5012030;28;20034;-72
2022/06/25 08:53:32;;;;;;;13.43;6.53;;;;;;;;;;5008036;28;20050;-73
2022/06/25 08:55:59;;;;;;;13.38;6.35;;;;;;;;;;5002487;28;20097;-71
2022/06/25 08:58:25;;;;;;;9.07;5.95;;;;;;;;;;5010469;28;20029;-73
2022/06/25 09:00:52;;;;;;;14.88;6.53;;;;;;;;;;5012252;28;20038;-77
2022/06/25 09:03:17;;;;;;;14.02;6.60;;;;;;;;;;5011827;28;20073;-78
2022/06/25 09:05:44;;;;;;;12.40;6.15;;;;;;;;;;5011387;28;20088;-75
2022/06/25 09:08:12;;;;;;;15.82;6.50;;;;;;;;;;5011184;28;20018;-74
2022/06/25 09:10:40;;;;;;;15.02;6.85;;;;;;;;;;5012270;28;20042;-67
2022/06/25 09:13:08;;;;;;;14.52;6.25;;;;;;;;;;5011898;28;20029;-72
2022/06/25 09:15:39;;;;;;;14.23;6.28;;;;;;;;;;5010961;28;20046;-72
2022/06/25 09:18:11;;;;;;;16.15;6.93;;;;;;;;;;5020765;28;20392;-76
2022/06/25 09:20:59;;;;;;;16.55;6.45;;;;;;;;;;5001167;28;20049;-72
2022/06/25 09:23:30;;;;;;;11.32;6.00;;;;;;;;;;5010178;28;20033;-72
2022/06/25 09:26:07;;;;;;;13.50;5.90;;;;;;;;;;5010537;28;20054;-72
2022/06/25 09:28:36;;;;;;;17.73;6.35;;;;;;;;;;5010880;28;20038;-73
2022/06/25 09:31:02;;;;;;;13.55;5.82;;;;;;;;;;5010989;28;20030;-73
2022/06/25 09:33:30;;;;;;;20.98;6.72;;;;;;;;;;5010965;28;20435;-75
2022/06/25 09:35:57;;;;;;;14.18;6.60;;;;;;;;;;5010841;28;20022;-70
2022/06/25 09:38:24;;;;;;;14.63;6.70;;;;;;;;;;5010655;28;20034;-69
2022/06/25 09:40:57;;;;;;;16.67;5.72;;;;;;;;;;5011491;28;20453;-73
2022/06/25 09:43:29;;;;;;;18.67;5.95;;;;;;;;;;5011200;28;20032;-75
2022/06/25 09:46:01;;;;;;;17.42;6.03;;;;;;;;;;5011926;28;20230;-71
2022/06/25 09:48:30;;;;;;;16.08;6.15;;;;;;;;;;5011487;28;20112;-69
2022/06/25 09:51:18;;;;;;;12.45;5.78;;;;;;;;;;5012329;28;20034;-72
2022/06/25 09:53:47;;;;;;;15.07;6.60;;;;;;;;;;5010869;28;20546;-76
2022/06/25 09:56:15;;;;;;;20.20;6.18;;;;;;;;;;5010878;28;20400;-73
2022/06/25 09:58:43;;;;;;;16.40;5.85;;;;;;;;;;5011601;28;20042;-73
2022/06/25 10:01:09;;;;;;;17.58;5.60;;;;;;;;;;5014987;28;20022;-71
2022/06/25 10:03:36;;;;;;;18.15;6.00;;;;;;;;;;5014944;28;20046;-71
2022/06/25 10:06:03;;;;;;;14.20;5.40;;;;;;;;;;5015192;28;20033;-69
2022/06/25 10:08:30;;;;;;;20.15;5.88;;;;;;;;;;5014922;28;20495;-72
2022/06/25 10:10:57;;;;;;;18.38;6.30;;;;;;;;;;5014877;28;20030;-72
2022/06/25 10:13:24;;;;;;;16.92;5.53;;;;;;;;;;5015249;28;20064;-74
2022/06/25 10:15:51;;;;;;;15.90;5.57;;;;;;;;;;5012759;28;20029;-72
2022/06/25 10:18:18;;;;;;;18.52;6.25;;;;;;;;;;5015897;28;20484;-72
2022/06/25 10:20:44;;;;;;;24.55;6.80;;;;;;;;;;5014140;28;20026;-75
2022/06/25 10:23:12;;;;;;;20.63;6.03;;;;;;;;;;5014391;28;20038;-72
2022/06/25 10:25:39;;;;;;;21.15;6.28;;;;;;;;;;5014667;28;20036;-71
2022/06/25 10:28:08;;;;;;;19.13;6.25;;;;;;;;;;5015018;28;20072;-75
2022/06/25 10:30:35;;;;;;;16.05;6.20;;;;;;;;;;5014685;28;20029;-70
2022/06/25 10:33:02;;;;;;;18.48;5.57;;;;;;;;;;5014677;28;20141;-73
2022/06/25 10:35:30;;;;;;;19.50;6.22;;;;;;;;;;5013184;28;20057;-75
2022/06/25 10:38:16;;;;;;;17.30;5.95;;;;;;;;;;5013187;28;20061;-77
2022/06/25 10:42:58;;;;;;;16.15;5.82;;;;;;;;;;5011614;28;20096;-76
2022/06/25 10:43:55;;;;;;;14.77;6.18;;;;;;;;;;5011838;28;20045;-75
2022/06/25 10:46:33;;;;;;;16.85;6.10;;;;;;;;;;5013074;28;20078;-77
2022/06/25 10:49:10;;;;;;;14.32;6.00;;;;;;;;;;5011995;28;20037;-75
2022/06/25 10:51:42;;;;;;;11.55;6.13;;;;;;;;;;5013268;28;20117;-75
2022/06/25 10:54:33;;;;;;;18.00;6.05;;;;;;;;;;5013630;28;20045;-77
2022/06/25 10:57:04;;;;;;;15.82;5.40;;;;;;;;;;5013399;28;20073;-71
2022/06/25 10:59:46;;;;;;;16.23;5.75;;;;;;;;;;5013946;28;20397;-76
2022/06/25 11:02:15;;;;;;;16.97;5.43;;;;;;;;;;5013414;28;20053;-71
2022/06/25 11:04:53;;;;;;;18.60;6.07;;;;;;;;;;5023226;28;20471;-72
2022/06/25 11:07:24;;;;;;;18.58;5.70;;;;;;;;;;5032629;28;20060;-72
2022/06/25 11:09:58;;;;;;;19.65;5.65;;;;;;;;;;5032799;28;20029;-71
2022/06/25 11:12:27;;;;;;;21.10;6.35;;;;;;;;;;5034003;28;20108;-77
2022/06/25 11:15:06;;;;;;;18.98;6.05;;;;;;;;;;5034248;28;20032;-71
2022/06/25 11:17:32;;;;;;;18.30;5.70;;;;;;;;;;5034401;28;20458;-72
2022/06/25 11:20:17;;;;;;;17.70;5.80;;;;;;;;;;5033957;28;20478;-69
2022/06/25 11:22:48;;;;;;;17.40;5.88;;;;;;;;;;5033670;28;20033;-71
2022/06/25 11:30:43;;;;;;;19.23;5.60;;;;;;;;;;5033640;28;20033;-71
2022/06/25 11:33:09;;;;;;;22.05;5.53;;;;;;;;;;5033971;28;20456;-70
2022/06/25 11:35:44;;;;;;;15.15;5.13;;;;;;;;;;5033971;28;20041;-72
2022/06/25 11:38:14;;;;;;;18.80;5.47;;;;;;;;;;5033740;28;20480;-71
2022/06/25 11:40:41;;;;;;;18.92;5.68;;;;;;;;;;5033674;28;20407;-73
2022/06/25 11:43:08;;;;;;;19.50;5.10;;;;;;;;;;5033663;28;20021;-72
2022/06/25 11:45:56;;;;;;;20.70;5.47;;;;;;;;;;5033335;28;20037;-71
2022/06/25 11:48:29;;;;;;;24.17;5.80;;;;;;;;;;5033145;28;20037;-72
2022/06/25 11:51:03;;;;;;;13.63;4.60;;;;;;;;;;5033138;28;20124;-73
2022/06/25 11:53:29;;;;;;;23.95;5.90;;;;;;;;;;5033312;28;20049;-70
2022/06/25 11:56:00;;;;;;;18.70;5.35;;;;;;;;;;5033134;28;20052;-72
2022/06/25 11:58:28;;;;;;;18.67;5.88;;;;;;;;;;5033374;28;20431;-71
2022/06/25 12:00:58;;;;;;;16.15;4.85;;;;;;;;;;5033247;28;20029;-70
2022/06/25 12:03:26;;;;;;;23.20;5.53;;;;;;;;;;5033210;28;20392;-71
2022/06/25 12:05:54;;;;;;;16.42;5.28;;;;;;;;;;5033322;28;20065;-71
2022/06/25 12:08:22;;;;;;;13.80;5.22;;;;;;;;;;5032992;28;20025;-72
2022/06/25 12:10:48;;;;;;;13.50;5.68;;;;;;;;;;5033138;28;20028;-70
2022/06/25 12:13:15;;;;;;;15.10;5.68;;;;;;;;;;5029383;28;20091;-72
2022/06/25 12:15:41;;;;;;;12.02;5.22;;;;;;;;;;5012442;28;20040;-69
2022/06/25 12:18:08;;;;;;;14.85;5.18;;;;;;;;;;5012353;28;20076;-70
2022/06/25 12:20:34;;;;;;;14.88;5.60;;;;;;;;;;5012772;28;20572;-76
2022/06/25 12:23:01;;;;;;;16.60;5.43;;;;;;;;;;5012817;28;20038;-77
2022/06/25 12:25:32;;;;;;;14.32;5.13;;;;;;;;;;5012382;28;20037;-71
2022/06/25 12:27:58;;;;;;;17.00;5.80;;;;;;;;;;5013222;28;20037;-74
2022/06/25 12:30:27;;;;;;;20.48;6.32;;;;;;;;;;5012837;28;20181;-71
2022/06/25 12:32:56;;;;;;;15.60;5.10;;;;;;;;;;5012919;28;20469;-76
2022/06/25 12:35:24;;;;;;;11.48;5.13;;;;;;;;;;5011574;28;20018;-71
2022/06/25 12:38:10;;;;;;;17.60;5.28;;;;;;;;;;5012578;28;20112;-74
2022/06/25 12:40:46;;;;;;;10.65;5.22;;;;;;;;;;5011387;28;20038;-73
2022/06/25 12:43:14;;;;;;;14.43;5.28;;;;;;;;;;4992737;28;20034;-71
2022/06/25 12:45:43;;;;;;;16.92;4.93;;;;;;;;;;4992698;28;20491;-71
2022/06/25 12:48:09;;;;;;;13.60;4.88;;;;;;;;;;4992730;28;20042;-73
2022/06/25 12:50:39;;;;;;;14.70;5.13;;;;;;;;;;4993023;28;20034;-69
2022/06/25 12:53:11;;;;;;;19.20;5.18;;;;;;;;;;4991501;28;20484;-71
2022/06/25 12:55:39;;;;;;;16.45;4.72;;;;;;;;;;4992588;28;20499;-69
2022/06/25 12:58:08;;;;;;;18.70;4.55;;;;;;;;;;5009566;28;20113;-70
2022/06/25 13:00:37;;;;;;;13.98;4.85;;;;;;;;;;5012268;28;20025;-69
2022/06/25 13:03:06;;;;;;;14.48;4.45;;;;;;;;;;5012144;28;20046;-70
2022/06/25 13:05:33;;;;;;;16.25;5.13;;;;;;;;;;5012541;28;20034;-71
2022/06/25 13:08:01;;;;;;;15.75;4.90;;;;;;;;;;5012705;28;20344;-71
2022/06/25 13:10:27;;;;;;;15.52;4.57;;;;;;;;;;5013058;28;20037;-72
2022/06/25 13:12:54;;;;;;;18.45;5.00;;;;;;;;;;5012236;28;20026;-70
2022/06/25 13:15:22;;;;;;;22.75;4.78;;;;;;;;;;5012416;28;20114;-71
2022/06/25 13:17:49;;;;;;;15.25;4.68;;;;;;;;;;5012206;28;20493;-71
2022/06/25 13:20:16;;;;;;;16.58;4.82;;;;;;;;;;5011346;28;20041;-71
2022/06/25 13:22:42;;;;;;;14.93;4.60;;;;;;;;;;5011702;28;20029;-72
2022/06/25 13:25:11;;;;;;;19.63;4.78;;;;;;;;;;5011772;28;20538;-72
2022/06/25 13:27:42;;;;;;;11.77;4.88;;;;;;;;;;5012070;28;20416;-71
2022/06/25 13:30:11;;;;;;;14.57;5.35;;;;;;;;;;5012353;28;20448;-73
2022/06/25 13:32:37;;;;;;;17.42;4.82;;;;;;;;;;5011950;28;20038;-70
2022/06/25 13:35:06;;;;;;;17.30;4.70;;;;;;;;;;5013827;28;20038;-72
2022/06/25 13:37:34;;;;;;;20.38;4.97;;;;;;;;;;5015629;28;20030;-71
2022/06/25 13:40:01;;;;;;;20.92;4.78;;;;;;;;;;5015581;28;20037;-71
2022/06/25 13:42:28;;;;;;;14.25;4.38;;;;;;;;;;5015579;28;20377;-74
2022/06/25 13:44:54;;;;;;;17.80;4.72;;;;;;;;;;5015945;28;20128;-74
2022/06/25 13:47:19;;;;;;;22.95;4.75;;;;;;;;;;5015814;28;20099;-73
2022/06/25 13:49:45;;;;;;;21.58;4.70;;;;;;;;;;5015565;28;20065;-73
2022/06/25 13:52:11;;;;;;;16.23;4.55;;;;;;;;;;5015146;28;20473;-75
2022/06/25 13:54:38;;;;;;;17.75;4.43;;;;;;;;;;5015025;28;20025;-75
2022/06/25 13:57:04;;;;;;;16.48;5.15;;;;;;;;;;5015229;28;20053;-75
2022/06/25 13:59:30;;;;;;;13.95;4.15;;;;;;;;;;5015290;28;20141;-75
2022/06/25 14:01:55;;;;;;;17.90;4.47;;;;;;;;;;5014713;28;20502;-72
2022/06/25 14:04:22;;;;;;;18.77;4.82;;;;;;;;;;5015312;28;20455;-75
2022/06/25 14:06:48;;;;;;;20.90;5.15;;;;;;;;;;5014257;28;20065;-77
2022/06/25 14:09:14;;;;;;;15.25;4.10;;;;;;;;;;5015607;28;20018;-72
2022/06/25 14:11:41;;;;;;;20.15;5.25;;;;;;;;;;5015662;28;20029;-73
2022/06/25 14:14:08;;;;;;;19.20;4.90;;;;;;;;;;5015673;28;20029;-74
2022/06/25 14:16:34;;;;;;;22.25;4.70;;;;;;;;;;5015729;28;20036;-74
2022/06/25 14:19:02;;;;;;;14.55;4.20;;;;;;;;;;5015394;28;20026;-75
2022/06/25 14:21:30;;;;;;;19.92;4.65;;;;;;;;;;5015492;28;20400;-72
2022/06/25 14:23:56;;;;;;;16.45;4.70;;;;;;;;;;5015033;28;20033;-71
2022/06/25 14:26:21;;;;;;;17.67;4.43;;;;;;;;;;5015340;28;20042;-73
2022/06/25 14:28:47;;;;;;;16.63;4.82;;;;;;;;;;5015359;28;20018;-74
2022/06/25 14:31:13;;;;;;;17.10;4.20;;;;;;;;;;5015201;28;20030;-79
2022/06/25 14:33:40;;;;;;;20.27;4.88;;;;;;;;;;5015367;28;20053;-78
2022/06/25 14:44:19;;;;;;;19.73;5.13;;;;;;;;;;5015187;28;20030;-74
2022/06/25 14:46:45;;;;;;;17.27;4.68;;;;;;;;;;5013968;28;20029;-75
2022/06/25 14:49:11;;;;;;;19.13;4.32;;;;;;;;;;5014863;28;20025;-76
2022/06/25 14:51:38;;;;;;;19.20;4.93;;;;;;;;;;5015234;28;20096;-76
2022/06/25 14:54:04;;;;;;;22.48;4.65;;;;;;;;;;5014805;28;20033;-74
2022/06/25 14:56:30;;;;;;;17.00;4.30;;;;;;;;;;5015411;28;20128;-77
2022/06/25 14:58:56;;;;;;;23.00;4.50;;;;;;;;;;5017962;28;20423;-73
2022/06/25 15:01:22;;;;;;;20.50;5.10;;;;;;;;;;5012415;28;20022;-72
2022/06/25 15:03:48;;;;;;;13.98;4.00;;;;;;;;;;5013738;28;20053;-73
2022/06/25 15:06:15;;;;;;;16.77;4.72;;;;;;;;;;5013869;28;20036;-74